»·PEaware :: UAL745 KDEN-KCPR

UAL745 :: KDEN-KCPR

FLIGHT INFORMATION

Flight Status: Arrived
Operator:
United Airlines
More flights by this operator :: More flights under this callsign
Pilot: Max W. (2591)
Aircraft: AIRBUS A320
(A320)
More flights by this aircraft type
Origin: KDEN Denver Intl
United States
Destination: KCPR Natrona Co Intl
United States
More flights between these airports :: More routes between these airports
Route: +RIKKK3 FISAR DDY
File this flight plan on PilotEdge
Remarks:
Altitude:
(Current/Filed)
27,000ft
Speed:
(Current/Filed)
450kts
Departed: 11-May-18 04:57 PM
Arrived: 11-May-18 05:40 PM
Distance/Time
Traveled:
200nm/0:43
Distance/Time
To Go:
Arrived

Flight Plot

Page will automatically refresh every two minutes.

Flight plan parsing failed; only flown route is shown


Map Options




Map Legend


Flown Route
Filed Route
Departure Airport
Arrival Airport
Navaid (VOR, NDB)
Fix

Horizontal Profiles

Position Reports

Time Latitude Longitude Heading Altitude Ground
Speed
11-May-18 16:36 39.859394 -104.675535 180 5327ft 0kts
11-May-18 16:37 39.859394 -104.675535 180 5327ft 0kts
11-May-18 16:38 39.859394 -104.675535 180 5327ft 0kts
11-May-18 16:39 39.859394 -104.675535 179 5327ft 0kts
11-May-18 16:40 39.859394 -104.675535 179 5327ft 0kts
11-May-18 16:41 39.859394 -104.675535 179 5327ft 0kts
11-May-18 16:42 39.859394 -104.675535 179 5327ft 0kts
11-May-18 16:43 39.859394 -104.675535 179 5327ft 0kts
11-May-18 16:44 39.859394 -104.675535 179 5327ft 0kts
11-May-18 16:45 39.859394 -104.675535 179 5327ft 0kts
11-May-18 16:46 39.859395 -104.675535 179 5327ft 0kts
11-May-18 16:47 39.859626 -104.675533 179 5327ft 2kts
11-May-18 16:48 39.860219 -104.675531 179 5327ft 2kts
11-May-18 16:49 39.860431 -104.675530 177 5327ft 0kts
11-May-18 16:50 39.860408 -104.674502 80 5327ft 8kts
11-May-18 16:51 39.860605 -104.669868 90 5327ft 13kts
11-May-18 16:52 39.861004 -104.663693 91 5327ft 16kts
11-May-18 16:53 39.864411 -104.662229 0 5327ft 20kts
11-May-18 16:54 39.869542 -104.662164 1 5327ft 20kts
11-May-18 16:55 39.874534 -104.662099 1 5327ft 23kts
11-May-18 16:56 39.877508 -104.659647 90 5327ft 37kts
11-May-18 16:57 39.876956 -104.611365 93 6728ft 165kts
11-May-18 16:58 39.887116 -104.548556 80 8381ft 203kts
11-May-18 16:59 39.904007 -104.465870 78 9363ft 275kts
11-May-18 17:00 39.962633 -104.388845 26 10542ft 348kts
11-May-18 17:01 40.065769 -104.389605 330 11416ft 403kts
11-May-18 17:02 40.156254 -104.474211 321 13184ft 415kts
11-May-18 17:03 40.250320 -104.562936 318 14950ft 425kts
11-May-18 17:04 40.353781 -104.638921 337 16530ft 440kts
11-May-18 17:05 40.469156 -104.695130 336 18000ft 448kts
11-May-18 17:06 40.586369 -104.752576 335 19356ft 456kts
11-May-18 17:07 40.705928 -104.811370 335 20638ft 462kts
11-May-18 17:08 40.826387 -104.870692 335 21874ft 466kts
11-May-18 17:09 40.948030 -104.930254 334 23080ft 469kts
11-May-18 17:10 41.070690 -104.990634 335 24015ft 475kts
11-May-18 17:11 41.189041 -105.049059 335 25598ft 463kts
11-May-18 17:12 41.308156 -105.108136 335 25996ft 462kts
11-May-18 17:13 41.428391 -105.168043 335 25986ft 463kts
11-May-18 17:14 41.548839 -105.229341 334 25962ft 464kts
11-May-18 17:15 41.665913 -105.303273 329 25962ft 478kts
11-May-18 17:16 41.786019 -105.383476 329 25979ft 486kts
11-May-18 17:17 41.906784 -105.464502 329 25962ft 487kts
11-May-18 17:18 42.025821 -105.544647 329 24749ft 476kts
11-May-18 17:19 42.139240 -105.621692 330 23969ft 477kts
11-May-18 17:20 42.255525 -105.700577 329 23477ft 467kts
11-May-18 17:21 42.366068 -105.775473 329 21286ft 455kts
11-May-18 17:22 42.475203 -105.850398 330 19130ft 442kts
11-May-18 17:23 42.582430 -105.923817 331 16989ft 427kts
11-May-18 17:24 42.696673 -105.948427 352 14893ft 415kts
11-May-18 17:25 42.780481 -106.033296 283 12731ft 390kts
11-May-18 17:26 42.762522 -106.169221 249 12035ft 332kts
11-May-18 17:27 42.737086 -106.278646 250 11023ft 297kts
11-May-18 17:28 42.713690 -106.384623 250 11027ft 278kts
11-May-18 17:29 42.693557 -106.478775 251 11030ft 254kts
11-May-18 17:30 42.673923 -106.570031 251 10529ft 251kts
11-May-18 17:31 42.654610 -106.658290 250 10032ft 256kts
11-May-18 17:32 42.661193 -106.744402 336 9066ft 260kts
11-May-18 17:33 42.717495 -106.706158 48 9029ft 241kts
11-May-18 17:34 42.762794 -106.646261 47 8800ft 215kts
11-May-18 17:35 42.804175 -106.591969 47 7756ft 190kts
11-May-18 17:36 42.837553 -106.548187 47 6837ft 153kts
11-May-18 17:37 42.862794 -106.515168 46 6181ft 150kts
11-May-18 17:38 42.892477 -106.476309 45 5398ft 145kts
11-May-18 17:39 42.911034 -106.451968 45 5327ft 44kts
11-May-18 17:40 42.909857 -106.450809 224 5327ft 25kts
11-May-18 17:41 42.905548 -106.455799 197 5327ft 13kts
11-May-18 17:42 42.904831 -106.456508 328 5327ft 0kts
11-May-18 17:43 42.904831 -106.456508 328 5327ft 0kts

Navigation Log

Ident Type
Flight plan parsing failed, navigation log unavailable